sensor_id;sensor_type;location;lat;lon;timestamp;P1;durP1;ratioP1;P2;durP2;ratioP2
62475;SDS011;50739;45.670;11.936;2024-01-30T00:03:01;64.28;;;35.08;;
62475;SDS011;50739;45.670;11.936;2024-01-30T00:08:03;74.03;;;36.92;;
62475;SDS011;50739;45.670;11.936;2024-01-30T00:13:08;68.85;;;36.42;;
62475;SDS011;50739;45.670;11.936;2024-01-30T00:18:10;66.18;;;35.85;;
62475;SDS011;50739;45.670;11.936;2024-01-30T00:23:12;67.50;;;36.00;;
62475;SDS011;50739;45.670;11.936;2024-01-30T00:28:16;65.18;;;35.78;;
62475;SDS011;50739;45.670;11.936;2024-01-30T00:38:45;71.25;;;36.92;;
62475;SDS011;50739;45.670;11.936;2024-01-30T00:43:49;71.65;;;36.55;;
62475;SDS011;50739;45.670;11.936;2024-01-30T00:48:52;77.03;;;37.88;;
62475;SDS011;50739;45.670;11.936;2024-01-30T00:53:54;70.05;;;37.35;;
62475;SDS011;50739;45.670;11.936;2024-01-30T00:58:58;76.57;;;40.80;;
62475;SDS011;50739;45.670;11.936;2024-01-30T01:04:00;69.47;;;39.05;;
62475;SDS011;50739;45.670;11.936;2024-01-30T01:09:03;75.60;;;40.72;;
62475;SDS011;50739;45.670;11.936;2024-01-30T01:14:06;77.70;;;41.80;;
62475;SDS011;50739;45.670;11.936;2024-01-30T01:19:09;82.60;;;43.10;;
62475;SDS011;50739;45.670;11.936;2024-01-30T01:24:11;78.60;;;42.50;;
62475;SDS011;50739;45.670;11.936;2024-01-30T01:29:15;77.88;;;42.08;;
62475;SDS011;50739;45.670;11.936;2024-01-30T01:34:18;77.32;;;39.30;;
62475;SDS011;50739;45.670;11.936;2024-01-30T01:39:20;74.70;;;41.17;;
62475;SDS011;50739;45.670;11.936;2024-01-30T01:44:25;75.15;;;40.97;;
62475;SDS011;50739;45.670;11.936;2024-01-30T01:49:29;68.60;;;39.37;;
62475;SDS011;50739;45.670;11.936;2024-01-30T01:54:31;74.13;;;39.33;;
62475;SDS011;50739;45.670;11.936;2024-01-30T01:59:36;67.88;;;38.72;;
62475;SDS011;50739;45.670;11.936;2024-01-30T02:04:38;66.05;;;37.92;;
62475;SDS011;50739;45.670;11.936;2024-01-30T02:09:41;66.88;;;36.85;;
62475;SDS011;50739;45.670;11.936;2024-01-30T02:14:46;65.40;;;35.60;;
62475;SDS011;50739;45.670;11.936;2024-01-30T02:19:48;62.80;;;34.30;;
62475;SDS011;50739;45.670;11.936;2024-01-30T02:24:53;58.40;;;32.95;;
62475;SDS011;50739;45.670;11.936;2024-01-30T02:29:55;57.53;;;33.58;;
62475;SDS011;50739;45.670;11.936;2024-01-30T02:34:57;60.53;;;31.37;;
62475;SDS011;50739;45.670;11.936;2024-01-30T02:40:01;55.60;;;32.13;;
62475;SDS011;50739;45.670;11.936;2024-01-30T02:45:04;56.03;;;30.67;;
62475;SDS011;50739;45.670;11.936;2024-01-30T02:50:08;58.30;;;31.42;;
62475;SDS011;50739;45.670;11.936;2024-01-30T02:55:12;55.90;;;30.27;;
62475;SDS011;50739;45.670;11.936;2024-01-30T03:00:18;51.57;;;28.67;;
62475;SDS011;50739;45.670;11.936;2024-01-30T03:05:21;54.25;;;29.00;;
62475;SDS011;50739;45.670;11.936;2024-01-30T03:10:25;61.65;;;33.63;;
62475;SDS011;50739;45.670;11.936;2024-01-30T03:15:27;62.17;;;33.42;;
62475;SDS011;50739;45.670;11.936;2024-01-30T03:20:30;62.90;;;34.83;;
62475;SDS011;50739;45.670;11.936;2024-01-30T03:25:33;64.15;;;34.55;;
62475;SDS011;50739;45.670;11.936;2024-01-30T03:30:36;63.15;;;33.42;;
62475;SDS011;50739;45.670;11.936;2024-01-30T03:35:38;60.15;;;33.90;;
62475;SDS011;50739;45.670;11.936;2024-01-30T03:40:42;66.32;;;34.95;;
62475;SDS011;50739;45.670;11.936;2024-01-30T03:45:45;59.00;;;33.37;;
62475;SDS011;50739;45.670;11.936;2024-01-30T03:50:47;61.35;;;34.50;;
62475;SDS011;50739;45.670;11.936;2024-01-30T03:55:51;63.27;;;35.43;;
62475;SDS011;50739;45.670;11.936;2024-01-30T04:00:53;56.65;;;33.03;;
62475;SDS011;50739;45.670;11.936;2024-01-30T04:05:56;66.32;;;34.72;;
62475;SDS011;50739;45.670;11.936;2024-01-30T04:11:00;57.97;;;33.03;;
62475;SDS011;50739;45.670;11.936;2024-01-30T04:16:06;63.25;;;33.47;;
62475;SDS011;50739;45.670;11.936;2024-01-30T04:21:08;60.10;;;32.70;;
62475;SDS011;50739;45.670;11.936;2024-01-30T04:26:12;60.83;;;33.95;;
62475;SDS011;50739;45.670;11.936;2024-01-30T04:31:15;62.47;;;32.37;;
62475;SDS011;50739;45.670;11.936;2024-01-30T04:36:17;59.33;;;31.98;;
62475;SDS011;50739;45.670;11.936;2024-01-30T04:41:21;57.25;;;33.92;;
62475;SDS011;50739;45.670;11.936;2024-01-30T04:46:24;60.75;;;34.67;;
62475;SDS011;50739;45.670;11.936;2024-01-30T04:51:26;60.85;;;33.20;;
62475;SDS011;50739;45.670;11.936;2024-01-30T04:56:30;60.35;;;33.60;;
62475;SDS011;50739;45.670;11.936;2024-01-30T05:01:32;55.50;;;31.77;;
62475;SDS011;50739;45.670;11.936;2024-01-30T05:06:35;55.22;;;32.53;;
62475;SDS011;50739;45.670;11.936;2024-01-30T05:11:39;54.13;;;30.95;;
62475;SDS011;50739;45.670;11.936;2024-01-30T05:16:42;53.30;;;29.93;;
62475;SDS011;50739;45.670;11.936;2024-01-30T05:21:47;55.53;;;30.42;;
62475;SDS011;50739;45.670;11.936;2024-01-30T05:26:51;54.03;;;31.37;;
62475;SDS011;50739;45.670;11.936;2024-01-30T05:31:53;58.53;;;31.48;;
62475;SDS011;50739;45.670;11.936;2024-01-30T05:36:56;64.07;;;34.05;;
62475;SDS011;50739;45.670;11.936;2024-01-30T05:42:00;60.92;;;33.45;;
62475;SDS011;50739;45.670;11.936;2024-01-30T05:47:02;62.50;;;34.50;;
62475;SDS011;50739;45.670;11.936;2024-01-30T05:52:05;58.40;;;32.05;;
62475;SDS011;50739;45.670;11.936;2024-01-30T05:57:09;59.73;;;33.03;;
62475;SDS011;50739;45.670;11.936;2024-01-30T06:02:12;55.40;;;30.90;;
62475;SDS011;50739;45.670;11.936;2024-01-30T06:07:14;61.22;;;29.85;;
62475;SDS011;50739;45.670;11.936;2024-01-30T06:12:19;56.77;;;31.97;;
62475;SDS011;50739;45.670;11.936;2024-01-30T06:17:21;58.63;;;31.80;;
62475;SDS011;50739;45.670;11.936;2024-01-30T06:22:24;55.55;;;32.97;;
62475;SDS011;50739;45.670;11.936;2024-01-30T06:27:27;61.60;;;32.20;;
62475;SDS011;50739;45.670;11.936;2024-01-30T06:32:30;57.65;;;32.65;;
62475;SDS011;50739;45.670;11.936;2024-01-30T06:37:35;55.22;;;31.10;;
62475;SDS011;50739;45.670;11.936;2024-01-30T06:42:38;58.40;;;33.13;;
62475;SDS011;50739;45.670;11.936;2024-01-30T06:47:41;63.73;;;34.93;;
62475;SDS011;50739;45.670;11.936;2024-01-30T06:52:43;69.07;;;37.22;;
62475;SDS011;50739;45.670;11.936;2024-01-30T06:57:47;67.57;;;37.13;;
62475;SDS011;50739;45.670;11.936;2024-01-30T07:02:49;68.72;;;37.35;;
62475;SDS011;50739;45.670;11.936;2024-01-30T07:07:52;72.45;;;35.97;;
62475;SDS011;50739;45.670;11.936;2024-01-30T07:12:55;69.50;;;37.58;;
62475;SDS011;50739;45.670;11.936;2024-01-30T07:17:58;73.78;;;39.80;;
62475;SDS011;50739;45.670;11.936;2024-01-30T07:23:00;65.60;;;35.70;;
62475;SDS011;50739;45.670;11.936;2024-01-30T07:28:04;67.40;;;37.03;;
62475;SDS011;50739;45.670;11.936;2024-01-30T07:33:07;61.88;;;35.80;;
62475;SDS011;50739;45.670;11.936;2024-01-30T07:38:09;67.07;;;36.83;;
62475;SDS011;50739;45.670;11.936;2024-01-30T07:43:13;66.38;;;36.70;;
62475;SDS011;50739;45.670;11.936;2024-01-30T07:48:15;69.00;;;37.65;;
62475;SDS011;50739;45.670;11.936;2024-01-30T07:53:18;68.75;;;37.58;;
62475;SDS011;50739;45.670;11.936;2024-01-30T07:58:22;70.73;;;38.73;;
62475;SDS011;50739;45.670;11.936;2024-01-30T08:03:24;69.95;;;39.45;;
62475;SDS011;50739;45.670;11.936;2024-01-30T08:08:27;67.80;;;37.13;;
62475;SDS011;50739;45.670;11.936;2024-01-30T08:13:31;63.45;;;36.97;;
62475;SDS011;50739;45.670;11.936;2024-01-30T08:18:33;63.45;;;36.58;;
62475;SDS011;50739;45.670;11.936;2024-01-30T08:23:35;60.85;;;35.53;;
62475;SDS011;50739;45.670;11.936;2024-01-30T08:28:41;63.97;;;34.77;;
62475;SDS011;50739;45.670;11.936;2024-01-30T08:33:44;59.33;;;32.53;;
62475;SDS011;50739;45.670;11.936;2024-01-30T08:38:46;54.30;;;31.33;;
62475;SDS011;50739;45.670;11.936;2024-01-30T08:43:50;52.33;;;31.85;;
62475;SDS011;50739;45.670;11.936;2024-01-30T08:48:52;54.65;;;30.88;;
62475;SDS011;50739;45.670;11.936;2024-01-30T08:53:55;57.40;;;32.13;;
62475;SDS011;50739;45.670;11.936;2024-01-30T08:58:58;60.53;;;30.08;;
62475;SDS011;50739;45.670;11.936;2024-01-30T09:04:01;50.35;;;28.77;;
62475;SDS011;50739;45.670;11.936;2024-01-30T09:09:03;50.92;;;28.67;;
62475;SDS011;50739;45.670;11.936;2024-01-30T09:14:08;48.50;;;28.10;;
62475;SDS011;50739;45.670;11.936;2024-01-30T09:19:10;43.57;;;25.50;;
62475;SDS011;50739;45.670;11.936;2024-01-30T09:24:12;51.08;;;26.17;;
62475;SDS011;50739;45.670;11.936;2024-01-30T09:29:16;42.63;;;25.20;;
62475;SDS011;50739;45.670;11.936;2024-01-30T09:34:18;42.30;;;23.50;;
62475;SDS011;50739;45.670;11.936;2024-01-30T09:39:21;38.92;;;21.88;;
62475;SDS011;50739;45.670;11.936;2024-01-30T09:44:24;37.90;;;22.25;;
62475;SDS011;50739;45.670;11.936;2024-01-30T09:49:30;37.65;;;21.83;;
62475;SDS011;50739;45.670;11.936;2024-01-30T09:54:34;34.50;;;19.00;;
62475;SDS011;50739;45.670;11.936;2024-01-30T09:59:39;34.22;;;19.15;;
62475;SDS011;50739;45.670;11.936;2024-01-30T10:04:43;27.80;;;16.70;;
62475;SDS011;50739;45.670;11.936;2024-01-30T10:09:45;28.38;;;16.13;;
62475;SDS011;50739;45.670;11.936;2024-01-30T10:14:51;30.40;;;16.70;;
62475;SDS011;50739;45.670;11.936;2024-01-30T10:19:53;25.30;;;16.35;;
62475;SDS011;50739;45.670;11.936;2024-01-30T10:24:56;22.58;;;14.52;;
62475;SDS011;50739;45.670;11.936;2024-01-30T10:29:59;23.38;;;14.13;;
62475;SDS011;50739;45.670;11.936;2024-01-30T10:35:04;22.95;;;15.27;;
62475;SDS011;50739;45.670;11.936;2024-01-30T10:40:07;27.97;;;16.33;;
62475;SDS011;50739;45.670;11.936;2024-01-30T10:45:12;25.43;;;14.10;;
62475;SDS011;50739;45.670;11.936;2024-01-30T10:50:16;23.77;;;14.10;;
62475;SDS011;50739;45.670;11.936;2024-01-30T10:55:18;22.42;;;12.55;;
62475;SDS011;50739;45.670;11.936;2024-01-30T11:00:24;22.77;;;12.88;;
62475;SDS011;50739;45.670;11.936;2024-01-30T11:05:28;25.83;;;14.37;;
62475;SDS011;50739;45.670;11.936;2024-01-30T11:10:30;22.90;;;14.05;;
62475;SDS011;50739;45.670;11.936;2024-01-30T11:15:37;23.20;;;12.98;;
62475;SDS011;50739;45.670;11.936;2024-01-30T11:20:40;18.65;;;12.38;;
62475;SDS011;50739;45.670;11.936;2024-01-30T11:25:48;18.48;;;11.02;;
62475;SDS011;50739;45.670;11.936;2024-01-30T11:31:03;17.92;;;11.20;;
62475;SDS011;50739;45.670;11.936;2024-01-30T11:36:07;18.03;;;10.77;;
62475;SDS011;50739;45.670;11.936;2024-01-30T11:41:10;20.23;;;11.40;;
62475;SDS011;50739;45.670;11.936;2024-01-30T11:46:14;19.80;;;11.82;;
62475;SDS011;50739;45.670;11.936;2024-01-30T11:51:16;18.13;;;11.17;;
62475;SDS011;50739;45.670;11.936;2024-01-30T11:56:20;19.67;;;10.48;;
62475;SDS011;50739;45.670;11.936;2024-01-30T12:01:24;17.08;;;10.18;;
62475;SDS011;50739;45.670;11.936;2024-01-30T12:06:26;17.85;;;10.43;;
62475;SDS011;50739;45.670;11.936;2024-01-30T12:11:29;16.97;;;10.37;;
62475;SDS011;50739;45.670;11.936;2024-01-30T12:16:33;16.55;;;10.60;;
62475;SDS011;50739;45.670;11.936;2024-01-30T12:21:36;22.33;;;11.73;;
62475;SDS011;50739;45.670;11.936;2024-01-30T12:26:39;24.50;;;13.63;;
62475;SDS011;50739;45.670;11.936;2024-01-30T12:31:43;33.83;;;17.42;;
62475;SDS011;50739;45.670;11.936;2024-01-30T12:36:47;28.57;;;16.20;;
62475;SDS011;50739;45.670;11.936;2024-01-30T12:41:49;19.48;;;12.10;;
62475;SDS011;50739;45.670;11.936;2024-01-30T12:46:53;19.38;;;11.20;;
62475;SDS011;50739;45.670;11.936;2024-01-30T12:51:56;17.00;;;9.77;;
62475;SDS011;50739;45.670;11.936;2024-01-30T12:57:00;18.53;;;10.70;;
62475;SDS011;50739;45.670;11.936;2024-01-30T13:02:04;18.77;;;10.83;;
62475;SDS011;50739;45.670;11.936;2024-01-30T13:07:07;16.52;;;9.93;;
62475;SDS011;50739;45.670;11.936;2024-01-30T13:12:09;21.98;;;10.65;;
62475;SDS011;50739;45.670;11.936;2024-01-30T13:17:13;20.38;;;10.95;;
62475;SDS011;50739;45.670;11.936;2024-01-30T13:22:15;21.00;;;11.13;;
62475;SDS011;50739;45.670;11.936;2024-01-30T13:27:18;18.13;;;10.60;;
62475;SDS011;50739;45.670;11.936;2024-01-30T13:32:21;19.30;;;10.82;;
62475;SDS011;50739;45.670;11.936;2024-01-30T13:37:24;19.13;;;10.50;;
62475;SDS011;50739;45.670;11.936;2024-01-30T13:42:26;19.67;;;11.00;;
62475;SDS011;50739;45.670;11.936;2024-01-30T13:47:33;21.33;;;12.45;;
62475;SDS011;50739;45.670;11.936;2024-01-30T13:52:35;20.13;;;11.45;;
62475;SDS011;50739;45.670;11.936;2024-01-30T13:57:37;21.38;;;12.98;;
62475;SDS011;50739;45.670;11.936;2024-01-30T14:02:41;19.63;;;13.07;;
62475;SDS011;50739;45.670;11.936;2024-01-30T14:07:44;20.67;;;12.05;;
62475;SDS011;50739;45.670;11.936;2024-01-30T14:12:46;18.40;;;12.82;;
62475;SDS011;50739;45.670;11.936;2024-01-30T14:17:50;20.02;;;12.60;;
62475;SDS011;50739;45.670;11.936;2024-01-30T14:22:52;20.45;;;13.52;;
62475;SDS011;50739;45.670;11.936;2024-01-30T14:27:56;20.20;;;13.40;;
62475;SDS011;50739;45.670;11.936;2024-01-30T14:33:00;24.52;;;14.32;;
62475;SDS011;50739;45.670;11.936;2024-01-30T14:38:02;22.02;;;14.18;;
62475;SDS011;50739;45.670;11.936;2024-01-30T14:43:05;22.92;;;14.35;;
62475;SDS011;50739;45.670;11.936;2024-01-30T14:48:09;23.15;;;14.70;;
62475;SDS011;50739;45.670;11.936;2024-01-30T14:53:11;23.17;;;14.95;;
62475;SDS011;50739;45.670;11.936;2024-01-30T14:58:14;26.33;;;15.77;;
62475;SDS011;50739;45.670;11.936;2024-01-30T15:03:17;24.40;;;15.27;;
62475;SDS011;50739;45.670;11.936;2024-01-30T15:08:20;24.77;;;16.53;;
62475;SDS011;50739;45.670;11.936;2024-01-30T15:13:22;30.03;;;16.83;;
62475;SDS011;50739;45.670;11.936;2024-01-30T15:18:26;29.63;;;16.70;;
62475;SDS011;50739;45.670;11.936;2024-01-30T15:23:28;30.98;;;16.80;;
62475;SDS011;50739;45.670;11.936;2024-01-30T15:28:34;26.52;;;15.32;;
62475;SDS011;50739;45.670;11.936;2024-01-30T15:33:39;25.87;;;15.43;;
62475;SDS011;50739;45.670;11.936;2024-01-30T15:38:43;28.30;;;16.13;;
62475;SDS011;50739;45.670;11.936;2024-01-30T15:43:45;26.55;;;15.45;;
62475;SDS011;50739;45.670;11.936;2024-01-30T15:48:49;26.83;;;16.08;;
62475;SDS011;50739;45.670;11.936;2024-01-30T15:53:51;27.70;;;16.05;;
62475;SDS011;50739;45.670;11.936;2024-01-30T15:58:54;25.23;;;16.10;;
62475;SDS011;50739;45.670;11.936;2024-01-30T16:03:58;27.00;;;16.02;;
62475;SDS011;50739;45.670;11.936;2024-01-30T16:09:01;30.07;;;16.33;;
62475;SDS011;50739;45.670;11.936;2024-01-30T16:14:04;28.67;;;16.30;;
62475;SDS011;50739;45.670;11.936;2024-01-30T16:19:08;37.28;;;19.55;;
62475;SDS011;50739;45.670;11.936;2024-01-30T16:24:10;40.97;;;20.83;;
62475;SDS011;50739;45.670;11.936;2024-01-30T16:29:13;41.42;;;20.08;;
62475;SDS011;50739;45.670;11.936;2024-01-30T16:34:17;38.42;;;19.65;;
62475;SDS011;50739;45.670;11.936;2024-01-30T16:39:19;35.80;;;19.00;;
62475;SDS011;50739;45.670;11.936;2024-01-30T16:44:21;35.72;;;17.85;;
62475;SDS011;50739;45.670;11.936;2024-01-30T16:49:25;36.17;;;19.15;;
62475;SDS011;50739;45.670;11.936;2024-01-30T16:54:27;38.57;;;21.07;;
62475;SDS011;50739;45.670;11.936;2024-01-30T16:59:30;46.25;;;24.58;;
62475;SDS011;50739;45.670;11.936;2024-01-30T17:04:34;38.13;;;22.75;;
62475;SDS011;50739;45.670;11.936;2024-01-30T17:09:36;47.30;;;22.45;;
62475;SDS011;50739;45.670;11.936;2024-01-30T17:14:39;40.58;;;20.98;;
62475;SDS011;50739;45.670;11.936;2024-01-30T17:19:43;35.23;;;21.13;;
62475;SDS011;50739;45.670;11.936;2024-01-30T17:24:46;51.58;;;26.83;;
62475;SDS011;50739;45.670;11.936;2024-01-30T17:29:48;45.60;;;24.97;;
62475;SDS011;50739;45.670;11.936;2024-01-30T17:34:52;39.97;;;22.70;;
62475;SDS011;50739;45.670;11.936;2024-01-30T17:39:54;38.65;;;22.65;;
62475;SDS011;50739;45.670;11.936;2024-01-30T17:44:57;40.55;;;23.58;;
62475;SDS011;50739;45.670;11.936;2024-01-30T17:50:02;44.38;;;23.80;;
62475;SDS011;50739;45.670;11.936;2024-01-30T17:55:05;50.90;;;27.03;;
62475;SDS011;50739;45.670;11.936;2024-01-30T18:00:08;66.97;;;38.73;;
62475;SDS011;50739;45.670;11.936;2024-01-30T18:05:13;61.57;;;33.10;;
62475;SDS011;50739;45.670;11.936;2024-01-30T18:10:15;52.05;;;28.77;;
62475;SDS011;50739;45.670;11.936;2024-01-30T18:15:19;52.30;;;29.60;;
62475;SDS011;50739;45.670;11.936;2024-01-30T18:20:23;59.97;;;32.97;;
62475;SDS011;50739;45.670;11.936;2024-01-30T18:25:26;59.47;;;32.53;;
62475;SDS011;50739;45.670;11.936;2024-01-30T18:30:28;61.70;;;33.08;;
62475;SDS011;50739;45.670;11.936;2024-01-30T18:35:32;54.80;;;31.10;;
62475;SDS011;50739;45.670;11.936;2024-01-30T18:40:35;68.70;;;34.90;;
62475;SDS011;50739;45.670;11.936;2024-01-30T18:45:37;62.78;;;34.92;;
62475;SDS011;50739;45.670;11.936;2024-01-30T18:50:41;63.42;;;34.88;;
62475;SDS011;50739;45.670;11.936;2024-01-30T18:55:44;60.47;;;32.13;;
62475;SDS011;50739;45.670;11.936;2024-01-30T19:00:47;57.95;;;32.28;;
62475;SDS011;50739;45.670;11.936;2024-01-30T19:05:50;57.10;;;33.97;;
62475;SDS011;50739;45.670;11.936;2024-01-30T19:10:53;68.55;;;36.25;;
62475;SDS011;50739;45.670;11.936;2024-01-30T19:15:56;56.33;;;32.03;;
62475;SDS011;50739;45.670;11.936;2024-01-30T19:21:00;58.50;;;33.58;;
62475;SDS011;50739;45.670;11.936;2024-01-30T19:26:02;59.27;;;33.07;;
62475;SDS011;50739;45.670;11.936;2024-01-30T19:31:05;60.60;;;33.37;;
62475;SDS011;50739;45.670;11.936;2024-01-30T19:36:10;57.13;;;33.20;;
62475;SDS011;50739;45.670;11.936;2024-01-30T19:41:13;60.25;;;34.17;;
62475;SDS011;50739;45.670;11.936;2024-01-30T19:46:15;59.28;;;34.42;;
62475;SDS011;50739;45.670;11.936;2024-01-30T19:51:19;61.08;;;33.47;;
62475;SDS011;50739;45.670;11.936;2024-01-30T19:56:22;55.93;;;33.10;;
62475;SDS011;50739;45.670;11.936;2024-01-30T20:01:24;60.13;;;34.05;;
62475;SDS011;50739;45.670;11.936;2024-01-30T20:06:29;63.37;;;34.47;;
62475;SDS011;50739;45.670;11.936;2024-01-30T20:11:31;64.10;;;35.20;;
62475;SDS011;50739;45.670;11.936;2024-01-30T20:16:37;62.20;;;36.38;;
62475;SDS011;50739;45.670;11.936;2024-01-30T20:21:42;68.35;;;37.97;;
62475;SDS011;50739;45.670;11.936;2024-01-30T20:26:45;73.03;;;40.03;;
62475;SDS011;50739;45.670;11.936;2024-01-30T20:31:48;72.80;;;38.88;;
62475;SDS011;50739;45.670;11.936;2024-01-30T20:36:52;69.73;;;39.03;;
62475;SDS011;50739;45.670;11.936;2024-01-30T20:41:54;73.90;;;40.10;;
62475;SDS011;50739;45.670;11.936;2024-01-30T20:46:57;75.95;;;40.47;;
62475;SDS011;50739;45.670;11.936;2024-01-30T20:52:01;74.30;;;40.70;;
62475;SDS011;50739;45.670;11.936;2024-01-30T20:57:03;73.05;;;40.13;;
62475;SDS011;50739;45.670;11.936;2024-01-30T21:02:08;70.53;;;39.57;;
62475;SDS011;50739;45.670;11.936;2024-01-30T21:07:12;69.10;;;38.13;;
62475;SDS011;50739;45.670;11.936;2024-01-30T21:12:14;70.20;;;39.10;;
62475;SDS011;50739;45.670;11.936;2024-01-30T21:17:17;68.93;;;38.53;;
62475;SDS011;50739;45.670;11.936;2024-01-30T21:22:21;68.88;;;37.67;;
62475;SDS011;50739;45.670;11.936;2024-01-30T21:27:23;72.00;;;39.40;;
62475;SDS011;50739;45.670;11.936;2024-01-30T21:32:27;71.95;;;38.85;;
62475;SDS011;50739;45.670;11.936;2024-01-30T21:37:30;65.40;;;38.80;;
62475;SDS011;50739;45.670;11.936;2024-01-30T21:42:34;66.82;;;37.97;;
62475;SDS011;50739;45.670;11.936;2024-01-30T21:47:37;67.22;;;39.13;;
62475;SDS011;50739;45.670;11.936;2024-01-30T21:52:41;68.60;;;37.33;;
62475;SDS011;50739;45.670;11.936;2024-01-30T21:57:43;70.30;;;38.67;;
62475;SDS011;50739;45.670;11.936;2024-01-30T22:02:45;67.47;;;38.00;;
62475;SDS011;50739;45.670;11.936;2024-01-30T22:07:49;66.53;;;37.53;;
62475;SDS011;50739;45.670;11.936;2024-01-30T22:12:52;63.58;;;37.78;;
62475;SDS011;50739;45.670;11.936;2024-01-30T22:17:54;66.82;;;39.03;;
62475;SDS011;50739;45.670;11.936;2024-01-30T22:22:58;74.40;;;41.00;;
62475;SDS011;50739;45.670;11.936;2024-01-30T22:28:00;74.15;;;42.20;;
62475;SDS011;50739;45.670;11.936;2024-01-30T22:33:02;75.00;;;42.80;;
62475;SDS011;50739;45.670;11.936;2024-01-30T22:38:08;77.85;;;43.75;;
62475;SDS011;50739;45.670;11.936;2024-01-30T22:43:10;73.60;;;42.40;;
62475;SDS011;50739;45.670;11.936;2024-01-30T22:48:13;74.17;;;42.80;;
62475;SDS011;50739;45.670;11.936;2024-01-30T22:53:16;76.75;;;44.00;;
62475;SDS011;50739;45.670;11.936;2024-01-30T22:58:19;76.43;;;43.20;;
62475;SDS011;50739;45.670;11.936;2024-01-30T23:03:21;82.50;;;44.60;;
62475;SDS011;50739;45.670;11.936;2024-01-30T23:08:25;86.50;;;47.28;;
62475;SDS011;50739;45.670;11.936;2024-01-30T23:13:28;88.95;;;47.90;;
62475;SDS011;50739;45.670;11.936;2024-01-30T23:18:30;87.70;;;48.15;;
62475;SDS011;50739;45.670;11.936;2024-01-30T23:23:34;83.30;;;45.92;;
62475;SDS011;50739;45.670;11.936;2024-01-30T23:28:36;90.63;;;47.80;;
62475;SDS011;50739;45.670;11.936;2024-01-30T23:33:38;82.18;;;46.38;;
62475;SDS011;50739;45.670;11.936;2024-01-30T23:38:42;87.87;;;46.70;;
62475;SDS011;50739;45.670;11.936;2024-01-30T23:43:44;92.73;;;49.37;;
62475;SDS011;50739;45.670;11.936;2024-01-30T23:48:47;87.90;;;46.20;;
62475;SDS011;50739;45.670;11.936;2024-01-30T23:53:51;82.77;;;44.80;;
62475;SDS011;50739;45.670;11.936;2024-01-30T23:58:53;79.67;;;43.20;;
